sensor_id;sensor_type;location;lat;lon;timestamp;P1;durP1;ratioP1;P2;durP2;ratioP2
9938;SDS011;5008;50.656;7.188;2022-08-21T00:00:32;5.70;;;4.70;;
9938;SDS011;5008;50.656;7.188;2022-08-21T00:02:59;6.95;;;4.72;;
9938;SDS011;5008;50.656;7.188;2022-08-21T00:05:30;6.43;;;4.65;;
9938;SDS011;5008;50.656;7.188;2022-08-21T00:07:58;5.97;;;4.80;;
9938;SDS011;5008;50.656;7.188;2022-08-21T00:10:25;5.60;;;4.55;;
9938;SDS011;5008;50.656;7.188;2022-08-21T00:12:52;5.47;;;4.93;;
9938;SDS011;5008;50.656;7.188;2022-08-21T00:15:23;5.88;;;4.90;;
9938;SDS011;5008;50.656;7.188;2022-08-21T00:17:52;5.50;;;4.32;;
9938;SDS011;5008;50.656;7.188;2022-08-21T00:20:19;5.65;;;5.00;;
9938;SDS011;5008;50.656;7.188;2022-08-21T00:22:48;5.95;;;4.90;;
9938;SDS011;5008;50.656;7.188;2022-08-21T00:25:16;5.95;;;4.90;;
9938;SDS011;5008;50.656;7.188;2022-08-21T00:27:43;4.68;;;4.28;;
9938;SDS011;5008;50.656;7.188;2022-08-21T00:30:12;5.63;;;4.22;;
9938;SDS011;5008;50.656;7.188;2022-08-21T00:32:40;6.30;;;4.32;;
9938;SDS011;5008;50.656;7.188;2022-08-21T00:35:08;6.70;;;4.70;;
9938;SDS011;5008;50.656;7.188;2022-08-21T00:37:37;6.60;;;4.63;;
9938;SDS011;5008;50.656;7.188;2022-08-21T00:40:09;4.50;;;4.10;;
9938;SDS011;5008;50.656;7.188;2022-08-21T00:42:38;6.35;;;4.65;;
9938;SDS011;5008;50.656;7.188;2022-08-21T00:45:05;4.78;;;4.20;;
9938;SDS011;5008;50.656;7.188;2022-08-21T00:47:33;6.10;;;4.25;;
9938;SDS011;5008;50.656;7.188;2022-08-21T00:50:00;4.55;;;4.10;;
9938;SDS011;5008;50.656;7.188;2022-08-21T00:52:28;5.18;;;4.30;;
9938;SDS011;5008;50.656;7.188;2022-08-21T00:54:58;4.43;;;4.03;;
9938;SDS011;5008;50.656;7.188;2022-08-21T00:57:28;5.00;;;4.30;;
9938;SDS011;5008;50.656;7.188;2022-08-21T00:59:58;5.75;;;4.50;;
9938;SDS011;5008;50.656;7.188;2022-08-21T01:02:28;5.47;;;4.10;;
9938;SDS011;5008;50.656;7.188;2022-08-21T01:04:55;4.80;;;4.30;;
9938;SDS011;5008;50.656;7.188;2022-08-21T01:07:22;6.35;;;4.65;;
9938;SDS011;5008;50.656;7.188;2022-08-21T01:09:50;5.05;;;4.18;;
9938;SDS011;5008;50.656;7.188;2022-08-21T01:12:17;4.50;;;4.10;;
9938;SDS011;5008;50.656;7.188;2022-08-21T01:14:46;4.63;;;4.15;;
9938;SDS011;5008;50.656;7.188;2022-08-21T01:17:13;3.97;;;3.67;;
9938;SDS011;5008;50.656;7.188;2022-08-21T01:19:41;6.07;;;4.18;;
9938;SDS011;5008;50.656;7.188;2022-08-21T01:22:10;4.80;;;4.00;;
9938;SDS011;5008;50.656;7.188;2022-08-21T01:24:36;4.32;;;3.90;;
9938;SDS011;5008;50.656;7.188;2022-08-21T01:27:03;4.65;;;3.90;;
9938;SDS011;5008;50.656;7.188;2022-08-21T01:29:32;4.97;;;4.25;;
9938;SDS011;5008;50.656;7.188;2022-08-21T01:32:04;4.43;;;4.03;;
9938;SDS011;5008;50.656;7.188;2022-08-21T01:34:34;6.00;;;3.65;;
9938;SDS011;5008;50.656;7.188;2022-08-21T01:37:04;5.57;;;4.25;;
9938;SDS011;5008;50.656;7.188;2022-08-21T01:39:33;5.18;;;4.13;;
9938;SDS011;5008;50.656;7.188;2022-08-21T01:42:00;6.90;;;4.38;;
9938;SDS011;5008;50.656;7.188;2022-08-21T01:44:27;4.72;;;4.22;;
9938;SDS011;5008;50.656;7.188;2022-08-21T01:46:54;6.85;;;4.18;;
9938;SDS011;5008;50.656;7.188;2022-08-21T01:49:23;4.68;;;4.07;;
9938;SDS011;5008;50.656;7.188;2022-08-21T01:51:50;5.97;;;4.20;;
9938;SDS011;5008;50.656;7.188;2022-08-21T01:54:16;4.90;;;4.00;;
9938;SDS011;5008;50.656;7.188;2022-08-21T01:56:46;5.25;;;4.10;;
9938;SDS011;5008;50.656;7.188;2022-08-21T01:59:15;5.13;;;4.47;;
9938;SDS011;5008;50.656;7.188;2022-08-21T02:01:42;5.22;;;4.20;;
9938;SDS011;5008;50.656;7.188;2022-08-21T02:04:09;5.47;;;4.25;;
9938;SDS011;5008;50.656;7.188;2022-08-21T02:06:37;5.60;;;4.47;;
9938;SDS011;5008;50.656;7.188;2022-08-21T02:09:04;5.68;;;4.30;;
9938;SDS011;5008;50.656;7.188;2022-08-21T02:11:33;4.65;;;4.20;;
9938;SDS011;5008;50.656;7.188;2022-08-21T02:14:02;4.30;;;3.90;;
9938;SDS011;5008;50.656;7.188;2022-08-21T02:16:29;4.85;;;3.90;;
9938;SDS011;5008;50.656;7.188;2022-08-21T02:18:56;6.50;;;4.68;;
9938;SDS011;5008;50.656;7.188;2022-08-21T02:21:22;4.45;;;3.97;;
9938;SDS011;5008;50.656;7.188;2022-08-21T02:23:50;4.82;;;4.07;;
9938;SDS011;5008;50.656;7.188;2022-08-21T02:26:17;7.65;;;4.28;;
9938;SDS011;5008;50.656;7.188;2022-08-21T02:28:44;5.47;;;4.15;;
9938;SDS011;5008;50.656;7.188;2022-08-21T02:31:12;4.50;;;4.10;;
9938;SDS011;5008;50.656;7.188;2022-08-21T02:33:39;4.75;;;4.30;;
9938;SDS011;5008;50.656;7.188;2022-08-21T02:36:07;4.40;;;4.00;;
9938;SDS011;5008;50.656;7.188;2022-08-21T02:38:35;5.65;;;4.20;;
9938;SDS011;5008;50.656;7.188;2022-08-21T02:41:03;6.85;;;4.80;;
9938;SDS011;5008;50.656;7.188;2022-08-21T02:43:31;4.85;;;4.03;;
9938;SDS011;5008;50.656;7.188;2022-08-21T02:45:58;6.57;;;4.00;;
9938;SDS011;5008;50.656;7.188;2022-08-21T02:48:26;5.63;;;4.13;;
9938;SDS011;5008;50.656;7.188;2022-08-21T02:50:56;5.40;;;3.95;;
9938;SDS011;5008;50.656;7.188;2022-08-21T02:53:26;5.43;;;4.40;;
9938;SDS011;5008;50.656;7.188;2022-08-21T02:55:55;5.90;;;4.40;;
9938;SDS011;5008;50.656;7.188;2022-08-21T02:58:25;5.53;;;4.40;;
9938;SDS011;5008;50.656;7.188;2022-08-21T03:00:53;4.55;;;4.15;;
9938;SDS011;5008;50.656;7.188;2022-08-21T03:03:20;4.93;;;4.38;;
9938;SDS011;5008;50.656;7.188;2022-08-21T03:05:48;4.90;;;4.40;;
9938;SDS011;5008;50.656;7.188;2022-08-21T03:08:16;5.22;;;4.72;;
9938;SDS011;5008;50.656;7.188;2022-08-21T03:10:45;5.68;;;4.07;;
9938;SDS011;5008;50.656;7.188;2022-08-21T03:13:13;5.28;;;4.28;;
9938;SDS011;5008;50.656;7.188;2022-08-21T03:15:40;7.50;;;4.38;;
9938;SDS011;5008;50.656;7.188;2022-08-21T03:18:08;5.20;;;4.50;;
9938;SDS011;5008;50.656;7.188;2022-08-21T03:20:36;5.93;;;4.88;;
9938;SDS011;5008;50.656;7.188;2022-08-21T03:23:06;4.97;;;4.30;;
9938;SDS011;5008;50.656;7.188;2022-08-21T03:25:33;5.10;;;4.53;;
9938;SDS011;5008;50.656;7.188;2022-08-21T03:28:02;4.70;;;4.22;;
9938;SDS011;5008;50.656;7.188;2022-08-21T03:30:30;4.40;;;4.00;;
9938;SDS011;5008;50.656;7.188;2022-08-21T03:32:57;4.78;;;3.90;;
9938;SDS011;5008;50.656;7.188;2022-08-21T03:35:24;4.50;;;4.10;;
9938;SDS011;5008;50.656;7.188;2022-08-21T03:37:52;4.75;;;3.92;;
9938;SDS011;5008;50.656;7.188;2022-08-21T03:40:20;5.30;;;4.22;;
9938;SDS011;5008;50.656;7.188;2022-08-21T03:42:49;5.80;;;4.35;;
9938;SDS011;5008;50.656;7.188;2022-08-21T03:45:16;5.32;;;4.28;;
9938;SDS011;5008;50.656;7.188;2022-08-21T03:47:51;4.65;;;3.90;;
9938;SDS011;5008;50.656;7.188;2022-08-21T03:50:20;5.30;;;4.13;;
9938;SDS011;5008;50.656;7.188;2022-08-21T03:52:47;5.47;;;4.40;;
9938;SDS011;5008;50.656;7.188;2022-08-21T03:55:14;5.90;;;4.68;;
9938;SDS011;5008;50.656;7.188;2022-08-21T03:57:42;4.72;;;4.13;;
9938;SDS011;5008;50.656;7.188;2022-08-21T04:00:10;5.05;;;4.15;;
9938;SDS011;5008;50.656;7.188;2022-08-21T04:02:38;4.63;;;4.25;;
9938;SDS011;5008;50.656;7.188;2022-08-21T04:05:06;4.10;;;3.70;;
9938;SDS011;5008;50.656;7.188;2022-08-21T04:07:33;5.88;;;4.30;;
9938;SDS011;5008;50.656;7.188;2022-08-21T04:10:00;4.78;;;4.22;;
9938;SDS011;5008;50.656;7.188;2022-08-21T04:12:27;5.05;;;4.63;;
9938;SDS011;5008;50.656;7.188;2022-08-21T04:14:55;5.05;;;4.55;;
9938;SDS011;5008;50.656;7.188;2022-08-21T04:17:22;4.88;;;4.25;;
9938;SDS011;5008;50.656;7.188;2022-08-21T04:19:49;5.28;;;4.78;;
9938;SDS011;5008;50.656;7.188;2022-08-21T04:22:16;5.82;;;5.00;;
9938;SDS011;5008;50.656;7.188;2022-08-21T04:24:43;4.97;;;4.47;;
9938;SDS011;5008;50.656;7.188;2022-08-21T04:27:10;5.70;;;4.40;;
9938;SDS011;5008;50.656;7.188;2022-08-21T04:29:36;4.57;;;4.00;;
9938;SDS011;5008;50.656;7.188;2022-08-21T04:32:05;5.03;;;4.35;;
9938;SDS011;5008;50.656;7.188;2022-08-21T04:34:32;5.03;;;4.55;;
9938;SDS011;5008;50.656;7.188;2022-08-21T04:36:59;5.88;;;4.70;;
9938;SDS011;5008;50.656;7.188;2022-08-21T04:39:25;4.65;;;4.22;;
9938;SDS011;5008;50.656;7.188;2022-08-21T04:41:52;5.40;;;4.68;;
9938;SDS011;5008;50.656;7.188;2022-08-21T04:44:19;6.78;;;4.82;;
9938;SDS011;5008;50.656;7.188;2022-08-21T04:46:46;4.90;;;4.07;;
9938;SDS011;5008;50.656;7.188;2022-08-21T04:49:14;5.65;;;4.53;;
9938;SDS011;5008;50.656;7.188;2022-08-21T04:51:40;6.00;;;4.82;;
9938;SDS011;5008;50.656;7.188;2022-08-21T04:54:08;5.85;;;4.82;;
9938;SDS011;5008;50.656;7.188;2022-08-21T04:56:40;4.65;;;4.25;;
9938;SDS011;5008;50.656;7.188;2022-08-21T04:59:14;5.57;;;4.32;;
9938;SDS011;5008;50.656;7.188;2022-08-21T05:01:44;5.50;;;4.50;;
9938;SDS011;5008;50.656;7.188;2022-08-21T05:04:12;4.88;;;4.47;;
9938;SDS011;5008;50.656;7.188;2022-08-21T05:06:44;5.75;;;4.60;;
9938;SDS011;5008;50.656;7.188;2022-08-21T05:09:14;6.20;;;4.68;;
9938;SDS011;5008;50.656;7.188;2022-08-21T05:11:42;6.80;;;4.50;;
9938;SDS011;5008;50.656;7.188;2022-08-21T05:14:09;4.78;;;4.07;;
9938;SDS011;5008;50.656;7.188;2022-08-21T05:16:37;5.35;;;4.68;;
9938;SDS011;5008;50.656;7.188;2022-08-21T05:19:05;5.68;;;5.05;;
9938;SDS011;5008;50.656;7.188;2022-08-21T05:21:34;4.75;;;4.30;;
9938;SDS011;5008;50.656;7.188;2022-08-21T05:24:02;5.55;;;4.60;;
9938;SDS011;5008;50.656;7.188;2022-08-21T05:26:29;6.88;;;4.50;;
9938;SDS011;5008;50.656;7.188;2022-08-21T05:28:56;6.10;;;4.57;;
9938;SDS011;5008;50.656;7.188;2022-08-21T05:31:23;4.53;;;4.00;;
9938;SDS011;5008;50.656;7.188;2022-08-21T05:33:50;5.38;;;4.60;;
9938;SDS011;5008;50.656;7.188;2022-08-21T05:36:17;4.78;;;4.32;;
9938;SDS011;5008;50.656;7.188;2022-08-21T05:38:45;6.05;;;5.07;;
9938;SDS011;5008;50.656;7.188;2022-08-21T05:41:12;5.03;;;4.57;;
9938;SDS011;5008;50.656;7.188;2022-08-21T05:43:39;5.45;;;4.95;;
9938;SDS011;5008;50.656;7.188;2022-08-21T05:46:07;4.95;;;4.45;;
9938;SDS011;5008;50.656;7.188;2022-08-21T05:48:34;6.88;;;5.55;;
9938;SDS011;5008;50.656;7.188;2022-08-21T05:51:04;5.57;;;4.70;;
9938;SDS011;5008;50.656;7.188;2022-08-21T05:53:31;5.18;;;4.65;;
9938;SDS011;5008;50.656;7.188;2022-08-21T05:56:00;5.90;;;5.30;;
9938;SDS011;5008;50.656;7.188;2022-08-21T05:58:29;5.90;;;5.30;;
9938;SDS011;5008;50.656;7.188;2022-08-21T06:00:57;5.97;;;4.93;;
9938;SDS011;5008;50.656;7.188;2022-08-21T06:03:25;5.90;;;4.90;;
9938;SDS011;5008;50.656;7.188;2022-08-21T06:05:54;5.53;;;5.03;;
9938;SDS011;5008;50.656;7.188;2022-08-21T06:08:22;5.18;;;4.65;;
9938;SDS011;5008;50.656;7.188;2022-08-21T06:10:50;6.53;;;4.78;;
9938;SDS011;5008;50.656;7.188;2022-08-21T06:13:19;5.38;;;4.50;;
9938;SDS011;5008;50.656;7.188;2022-08-21T06:15:47;5.47;;;4.82;;
9938;SDS011;5008;50.656;7.188;2022-08-21T06:18:15;5.30;;;4.45;;
9938;SDS011;5008;50.656;7.188;2022-08-21T06:20:43;5.97;;;5.38;;
9938;SDS011;5008;50.656;7.188;2022-08-21T06:23:10;5.60;;;5.10;;
9938;SDS011;5008;50.656;7.188;2022-08-21T06:25:37;5.50;;;5.10;;
9938;SDS011;5008;50.656;7.188;2022-08-21T06:28:05;6.78;;;6.18;;
9938;SDS011;5008;50.656;7.188;2022-08-21T06:30:35;8.15;;;7.15;;
9938;SDS011;5008;50.656;7.188;2022-08-21T06:33:03;8.70;;;6.80;;
9938;SDS011;5008;50.656;7.188;2022-08-21T06:35:31;7.47;;;6.72;;
9938;SDS011;5008;50.656;7.188;2022-08-21T06:37:59;7.80;;;7.00;;
9938;SDS011;5008;50.656;7.188;2022-08-21T06:40:26;8.32;;;6.85;;
9938;SDS011;5008;50.656;7.188;2022-08-21T06:42:53;6.78;;;6.13;;
9938;SDS011;5008;50.656;7.188;2022-08-21T06:45:20;6.78;;;6.05;;
9938;SDS011;5008;50.656;7.188;2022-08-21T06:47:49;7.05;;;6.22;;
9938;SDS011;5008;50.656;7.188;2022-08-21T06:50:15;8.07;;;6.47;;
9938;SDS011;5008;50.656;7.188;2022-08-21T06:52:42;6.88;;;5.57;;
9938;SDS011;5008;50.656;7.188;2022-08-21T06:55:09;7.07;;;5.85;;
9938;SDS011;5008;50.656;7.188;2022-08-21T06:57:36;6.15;;;5.53;;
9938;SDS011;5008;50.656;7.188;2022-08-21T07:00:04;5.50;;;4.90;;
9938;SDS011;5008;50.656;7.188;2022-08-21T07:02:32;7.43;;;5.32;;
9938;SDS011;5008;50.656;7.188;2022-08-21T07:05:01;7.15;;;5.72;;
9938;SDS011;5008;50.656;7.188;2022-08-21T07:07:28;6.68;;;5.30;;
9938;SDS011;5008;50.656;7.188;2022-08-21T07:09:55;6.40;;;5.80;;
9938;SDS011;5008;50.656;7.188;2022-08-21T07:12:22;6.20;;;5.50;;
9938;SDS011;5008;50.656;7.188;2022-08-21T07:14:50;9.65;;;5.75;;
9938;SDS011;5008;50.656;7.188;2022-08-21T07:17:18;8.23;;;6.07;;
9938;SDS011;5008;50.656;7.188;2022-08-21T07:19:44;6.00;;;5.40;;
9938;SDS011;5008;50.656;7.188;2022-08-21T07:22:13;6.57;;;5.85;;
9938;SDS011;5008;50.656;7.188;2022-08-21T07:24:42;7.63;;;6.38;;
9938;SDS011;5008;50.656;7.188;2022-08-21T07:27:09;7.75;;;5.82;;
9938;SDS011;5008;50.656;7.188;2022-08-21T07:29:36;7.35;;;5.28;;
9938;SDS011;5008;50.656;7.188;2022-08-21T07:32:02;6.32;;;5.70;;
9938;SDS011;5008;50.656;7.188;2022-08-21T07:34:30;6.55;;;5.95;;
9938;SDS011;5008;50.656;7.188;2022-08-21T07:36:57;6.13;;;5.07;;
9938;SDS011;5008;50.656;7.188;2022-08-21T07:39:26;6.82;;;5.70;;
9938;SDS011;5008;50.656;7.188;2022-08-21T07:41:52;6.22;;;5.63;;
9938;SDS011;5008;50.656;7.188;2022-08-21T07:44:19;6.00;;;5.40;;
9938;SDS011;5008;50.656;7.188;2022-08-21T07:46:46;8.30;;;6.03;;
9938;SDS011;5008;50.656;7.188;2022-08-21T07:49:13;7.85;;;6.18;;
9938;SDS011;5008;50.656;7.188;2022-08-21T07:51:40;8.20;;;6.03;;
9938;SDS011;5008;50.656;7.188;2022-08-21T07:54:07;6.80;;;5.80;;
9938;SDS011;5008;50.656;7.188;2022-08-21T07:56:35;7.93;;;6.18;;
9938;SDS011;5008;50.656;7.188;2022-08-21T07:59:02;7.65;;;5.90;;
9938;SDS011;5008;50.656;7.188;2022-08-21T08:01:29;7.20;;;5.80;;
9938;SDS011;5008;50.656;7.188;2022-08-21T08:03:56;6.63;;;5.82;;
9938;SDS011;5008;50.656;7.188;2022-08-21T08:06:23;6.18;;;5.43;;
9938;SDS011;5008;50.656;7.188;2022-08-21T08:08:51;7.60;;;5.55;;
9938;SDS011;5008;50.656;7.188;2022-08-21T08:11:18;8.05;;;5.70;;
9938;SDS011;5008;50.656;7.188;2022-08-21T08:13:47;7.32;;;5.65;;
9938;SDS011;5008;50.656;7.188;2022-08-21T08:16:17;5.45;;;4.78;;
9938;SDS011;5008;50.656;7.188;2022-08-21T08:18:45;5.85;;;5.30;;
9938;SDS011;5008;50.656;7.188;2022-08-21T08:21:12;8.65;;;5.38;;
9938;SDS011;5008;50.656;7.188;2022-08-21T08:23:39;7.68;;;4.47;;
9938;SDS011;5008;50.656;7.188;2022-08-21T08:26:06;6.57;;;4.72;;
9938;SDS011;5008;50.656;7.188;2022-08-21T08:28:33;7.82;;;5.72;;
9938;SDS011;5008;50.656;7.188;2022-08-21T08:34:18;6.63;;;5.15;;
9938;SDS011;5008;50.656;7.188;2022-08-21T08:36:47;5.75;;;4.47;;
9938;SDS011;5008;50.656;7.188;2022-08-21T08:39:14;6.30;;;4.88;;
9938;SDS011;5008;50.656;7.188;2022-08-21T08:41:40;5.55;;;4.32;;
9938;SDS011;5008;50.656;7.188;2022-08-21T08:44:11;10.25;;;7.93;;
9938;SDS011;5008;50.656;7.188;2022-08-21T08:46:39;7.22;;;4.10;;
9938;SDS011;5008;50.656;7.188;2022-08-21T08:49:09;7.88;;;4.90;;
9938;SDS011;5008;50.656;7.188;2022-08-21T08:51:45;7.75;;;5.30;;
9938;SDS011;5008;50.656;7.188;2022-08-21T08:54:17;7.63;;;4.32;;
9938;SDS011;5008;50.656;7.188;2022-08-21T08:56:50;6.07;;;4.00;;
9938;SDS011;5008;50.656;7.188;2022-08-21T08:59:22;6.30;;;3.65;;
9938;SDS011;5008;50.656;7.188;2022-08-21T09:01:53;6.95;;;4.38;;
9938;SDS011;5008;50.656;7.188;2022-08-21T09:04:22;6.53;;;3.63;;
9938;SDS011;5008;50.656;7.188;2022-08-21T09:07:01;4.97;;;3.67;;
9938;SDS011;5008;50.656;7.188;2022-08-21T09:09:40;7.65;;;3.78;;
9938;SDS011;5008;50.656;7.188;2022-08-21T09:12:19;5.90;;;3.72;;
9938;SDS011;5008;50.656;7.188;2022-08-21T09:15:01;6.53;;;3.83;;
9938;SDS011;5008;50.656;7.188;2022-08-21T09:17:36;4.70;;;3.70;;
9938;SDS011;5008;50.656;7.188;2022-08-21T09:20:14;3.22;;;2.92;;
9938;SDS011;5008;50.656;7.188;2022-08-21T09:22:55;5.38;;;3.60;;
9938;SDS011;5008;50.656;7.188;2022-08-21T09:25:32;4.55;;;3.45;;
9938;SDS011;5008;50.656;7.188;2022-08-21T09:28:06;4.57;;;2.92;;
9938;SDS011;5008;50.656;7.188;2022-08-21T09:30:36;4.95;;;3.35;;
9938;SDS011;5008;50.656;7.188;2022-08-21T09:33:05;5.32;;;3.10;;
9938;SDS011;5008;50.656;7.188;2022-08-21T09:35:32;7.55;;;3.55;;
9938;SDS011;5008;50.656;7.188;2022-08-21T09:38:04;5.78;;;3.22;;
9938;SDS011;5008;50.656;7.188;2022-08-21T09:40:33;5.53;;;3.00;;
9938;SDS011;5008;50.656;7.188;2022-08-21T09:43:05;5.13;;;3.13;;
9938;SDS011;5008;50.656;7.188;2022-08-21T09:45:42;4.57;;;3.00;;
9938;SDS011;5008;50.656;7.188;2022-08-21T09:48:11;5.07;;;3.42;;
9938;SDS011;5008;50.656;7.188;2022-08-21T09:50:40;5.82;;;3.08;;
9938;SDS011;5008;50.656;7.188;2022-08-21T09:53:16;2.88;;;2.50;;
9938;SDS011;5008;50.656;7.188;2022-08-21T09:55:48;5.03;;;3.20;;
9938;SDS011;5008;50.656;7.188;2022-08-21T09:58:36;3.70;;;3.25;;
9938;SDS011;5008;50.656;7.188;2022-08-21T10:01:13;6.45;;;3.40;;
9938;SDS011;5008;50.656;7.188;2022-08-21T10:03:42;3.53;;;2.70;;
9938;SDS011;5008;50.656;7.188;2022-08-21T10:06:09;3.75;;;2.60;;
9938;SDS011;5008;50.656;7.188;2022-08-21T10:08:48;6.70;;;3.28;;
9938;SDS011;5008;50.656;7.188;2022-08-21T10:11:15;4.65;;;2.75;;
9938;SDS011;5008;50.656;7.188;2022-08-21T10:13:46;5.00;;;2.83;;
9938;SDS011;5008;50.656;7.188;2022-08-21T10:16:21;7.05;;;3.20;;
9938;SDS011;5008;50.656;7.188;2022-08-21T10:19:01;5.38;;;3.13;;
9938;SDS011;5008;50.656;7.188;2022-08-21T10:21:35;6.07;;;2.80;;
9938;SDS011;5008;50.656;7.188;2022-08-21T10:24:11;3.25;;;2.50;;
9938;SDS011;5008;50.656;7.188;2022-08-21T10:26:48;5.25;;;2.65;;
9938;SDS011;5008;50.656;7.188;2022-08-21T10:29:25;4.53;;;2.58;;
9938;SDS011;5008;50.656;7.188;2022-08-21T10:32:06;4.13;;;2.78;;
9938;SDS011;5008;50.656;7.188;2022-08-21T10:34:46;3.63;;;2.63;;
9938;SDS011;5008;50.656;7.188;2022-08-21T10:37:20;6.03;;;2.63;;
9938;SDS011;5008;50.656;7.188;2022-08-21T10:39:57;4.55;;;2.90;;
9938;SDS011;5008;50.656;7.188;2022-08-21T10:42:35;2.47;;;2.28;;
9938;SDS011;5008;50.656;7.188;2022-08-21T10:45:14;3.50;;;2.50;;
9938;SDS011;5008;50.656;7.188;2022-08-21T10:47:49;3.72;;;2.42;;
9938;SDS011;5008;50.656;7.188;2022-08-21T10:50:25;2.47;;;2.20;;
9938;SDS011;5008;50.656;7.188;2022-08-21T10:53:00;3.45;;;2.13;;
9938;SDS011;5008;50.656;7.188;2022-08-21T10:55:43;3.83;;;2.38;;
9938;SDS011;5008;50.656;7.188;2022-08-21T10:58:17;4.65;;;2.20;;
9938;SDS011;5008;50.656;7.188;2022-08-21T11:00:51;3.65;;;2.35;;
9938;SDS011;5008;50.656;7.188;2022-08-21T11:03:22;4.45;;;2.30;;
9938;SDS011;5008;50.656;7.188;2022-08-21T11:05:52;4.65;;;2.60;;
9938;SDS011;5008;50.656;7.188;2022-08-21T11:08:21;2.92;;;2.20;;
9938;SDS011;5008;50.656;7.188;2022-08-21T11:10:55;3.25;;;2.40;;
9938;SDS011;5008;50.656;7.188;2022-08-21T11:13:29;4.47;;;2.30;;
9938;SDS011;5008;50.656;7.188;2022-08-21T11:16:03;4.40;;;2.33;;
9938;SDS011;5008;50.656;7.188;2022-08-21T11:18:37;4.50;;;2.35;;
9938;SDS011;5008;50.656;7.188;2022-08-21T11:21:15;4.07;;;2.40;;
9938;SDS011;5008;50.656;7.188;2022-08-21T11:23:56;3.53;;;2.08;;
9938;SDS011;5008;50.656;7.188;2022-08-21T11:26:32;3.97;;;2.05;;
9938;SDS011;5008;50.656;7.188;2022-08-21T11:29:06;3.95;;;1.98;;
9938;SDS011;5008;50.656;7.188;2022-08-21T11:31:39;3.95;;;2.38;;
9938;SDS011;5008;50.656;7.188;2022-08-21T11:34:17;2.05;;;1.90;;
9938;SDS011;5008;50.656;7.188;2022-08-21T11:36:55;3.22;;;2.22;;
9938;SDS011;5008;50.656;7.188;2022-08-21T11:39:30;2.97;;;1.90;;
9938;SDS011;5008;50.656;7.188;2022-08-21T11:42:07;3.75;;;2.00;;
9938;SDS011;5008;50.656;7.188;2022-08-21T11:44:46;3.38;;;2.33;;
9938;SDS011;5008;50.656;7.188;2022-08-21T11:47:19;4.50;;;2.33;;
9938;SDS011;5008;50.656;7.188;2022-08-21T11:49:55;2.65;;;1.80;;
9938;SDS011;5008;50.656;7.188;2022-08-21T11:52:32;5.45;;;2.10;;
9938;SDS011;5008;50.656;7.188;2022-08-21T11:55:02;3.42;;;2.00;;
9938;SDS011;5008;50.656;7.188;2022-08-21T11:57:36;4.20;;;1.88;;
9938;SDS011;5008;50.656;7.188;2022-08-21T12:00:11;2.60;;;2.20;;
9938;SDS011;5008;50.656;7.188;2022-08-21T12:02:43;3.47;;;2.20;;
9938;SDS011;5008;50.656;7.188;2022-08-21T12:05:22;3.05;;;2.25;;
9938;SDS011;5008;50.656;7.188;2022-08-21T12:07:59;2.75;;;2.00;;
9938;SDS011;5008;50.656;7.188;2022-08-21T12:10:31;2.42;;;2.08;;
9938;SDS011;5008;50.656;7.188;2022-08-21T12:13:06;2.97;;;2.15;;
9938;SDS011;5008;50.656;7.188;2022-08-21T12:15:36;2.85;;;2.00;;
9938;SDS011;5008;50.656;7.188;2022-08-21T12:18:05;2.85;;;2.17;;
9938;SDS011;5008;50.656;7.188;2022-08-21T12:20:56;2.72;;;1.90;;
9938;SDS011;5008;50.656;7.188;2022-08-21T12:23:26;3.05;;;2.03;;
9938;SDS011;5008;50.656;7.188;2022-08-21T12:26:00;2.05;;;1.85;;
9938;SDS011;5008;50.656;7.188;2022-08-21T12:28:43;1.85;;;1.75;;
9938;SDS011;5008;50.656;7.188;2022-08-21T12:31:17;2.92;;;2.15;;
9938;SDS011;5008;50.656;7.188;2022-08-21T12:33:49;3.50;;;1.80;;
9938;SDS011;5008;50.656;7.188;2022-08-21T12:36:21;2.65;;;1.73;;
9938;SDS011;5008;50.656;7.188;2022-08-21T12:38:51;3.35;;;1.80;;
9938;SDS011;5008;50.656;7.188;2022-08-21T12:41:22;2.55;;;1.90;;
9938;SDS011;5008;50.656;7.188;2022-08-21T12:43:56;2.53;;;1.95;;
9938;SDS011;5008;50.656;7.188;2022-08-21T12:46:27;2.83;;;1.92;;
9938;SDS011;5008;50.656;7.188;2022-08-21T12:48:59;3.75;;;1.98;;
9938;SDS011;5008;50.656;7.188;2022-08-21T12:51:33;2.70;;;2.10;;
9938;SDS011;5008;50.656;7.188;2022-08-21T12:54:08;2.35;;;1.90;;
9938;SDS011;5008;50.656;7.188;2022-08-21T12:56:35;1.85;;;1.65;;
9938;SDS011;5008;50.656;7.188;2022-08-21T12:59:07;2.63;;;1.80;;
9938;SDS011;5008;50.656;7.188;2022-08-21T13:01:39;2.40;;;1.90;;
9938;SDS011;5008;50.656;7.188;2022-08-21T13:04:15;2.47;;;1.92;;
9938;SDS011;5008;50.656;7.188;2022-08-21T13:06:51;2.22;;;1.80;;
9938;SDS011;5008;50.656;7.188;2022-08-21T13:09:22;1.90;;;1.80;;
9938;SDS011;5008;50.656;7.188;2022-08-21T13:11:53;2.05;;;1.70;;
9938;SDS011;5008;50.656;7.188;2022-08-21T13:14:23;2.65;;;1.73;;
9938;SDS011;5008;50.656;7.188;2022-08-21T13:16:54;1.88;;;1.65;;
9938;SDS011;5008;50.656;7.188;2022-08-21T13:19:21;4.22;;;1.83;;
9938;SDS011;5008;50.656;7.188;2022-08-21T13:21:49;3.25;;;1.92;;
9938;SDS011;5008;50.656;7.188;2022-08-21T13:24:19;3.40;;;2.20;;
9938;SDS011;5008;50.656;7.188;2022-08-21T13:26:48;1.98;;;1.88;;
9938;SDS011;5008;50.656;7.188;2022-08-21T13:29:17;2.55;;;1.52;;
9938;SDS011;5008;50.656;7.188;2022-08-21T13:31:48;2.50;;;1.90;;
9938;SDS011;5008;50.656;7.188;2022-08-21T13:34:17;1.70;;;1.60;;
9938;SDS011;5008;50.656;7.188;2022-08-21T13:36:45;2.53;;;1.70;;
9938;SDS011;5008;50.656;7.188;2022-08-21T13:39:15;1.80;;;1.70;;
9938;SDS011;5008;50.656;7.188;2022-08-21T13:41:46;2.95;;;1.70;;
9938;SDS011;5008;50.656;7.188;2022-08-21T13:44:16;2.47;;;1.90;;
9938;SDS011;5008;50.656;7.188;2022-08-21T13:46:44;2.40;;;1.70;;
9938;SDS011;5008;50.656;7.188;2022-08-21T13:49:14;2.83;;;1.90;;
9938;SDS011;5008;50.656;7.188;2022-08-21T13:51:43;2.13;;;1.60;;
9938;SDS011;5008;50.656;7.188;2022-08-21T13:54:21;2.83;;;1.80;;
9938;SDS011;5008;50.656;7.188;2022-08-21T13:56:51;3.03;;;1.80;;
9938;SDS011;5008;50.656;7.188;2022-08-21T13:59:25;2.28;;;1.73;;
9938;SDS011;5008;50.656;7.188;2022-08-21T14:01:55;2.78;;;2.05;;
9938;SDS011;5008;50.656;7.188;2022-08-21T14:04:29;2.10;;;1.70;;
9938;SDS011;5008;50.656;7.188;2022-08-21T14:07:00;2.08;;;1.80;;
9938;SDS011;5008;50.656;7.188;2022-08-21T14:09:28;3.17;;;1.73;;
9938;SDS011;5008;50.656;7.188;2022-08-21T14:11:58;2.55;;;2.17;;
9938;SDS011;5008;50.656;7.188;2022-08-21T14:14:28;1.77;;;1.67;;
9938;SDS011;5008;50.656;7.188;2022-08-21T14:16:58;2.70;;;1.80;;
9938;SDS011;5008;50.656;7.188;2022-08-21T14:19:34;4.40;;;2.15;;
9938;SDS011;5008;50.656;7.188;2022-08-21T14:24:47;4.35;;;1.80;;
9938;SDS011;5008;50.656;7.188;2022-08-21T14:27:16;2.28;;;1.77;;
9938;SDS011;5008;50.656;7.188;2022-08-21T14:29:44;1.90;;;1.70;;
9938;SDS011;5008;50.656;7.188;2022-08-21T14:32:12;1.85;;;1.60;;
9938;SDS011;5008;50.656;7.188;2022-08-21T14:34:42;2.95;;;1.52;;
9938;SDS011;5008;50.656;7.188;2022-08-21T14:37:09;2.55;;;2.08;;
9938;SDS011;5008;50.656;7.188;2022-08-21T14:39:35;1.90;;;1.80;;
9938;SDS011;5008;50.656;7.188;2022-08-21T14:42:03;2.47;;;1.40;;
9938;SDS011;5008;50.656;7.188;2022-08-21T14:44:30;2.03;;;1.67;;
9938;SDS011;5008;50.656;7.188;2022-08-21T14:46:58;1.40;;;1.25;;
9938;SDS011;5008;50.656;7.188;2022-08-21T14:49:26;4.32;;;2.08;;
9938;SDS011;5008;50.656;7.188;2022-08-21T14:51:55;2.40;;;2.20;;
9938;SDS011;5008;50.656;7.188;2022-08-21T14:54:22;2.22;;;1.85;;
9938;SDS011;5008;50.656;7.188;2022-08-21T14:56:49;3.15;;;1.65;;
9938;SDS011;5008;50.656;7.188;2022-08-21T14:59:16;4.57;;;2.00;;
9938;SDS011;5008;50.656;7.188;2022-08-21T15:01:44;3.10;;;1.67;;
9938;SDS011;5008;50.656;7.188;2022-08-21T15:04:11;3.08;;;1.77;;
9938;SDS011;5008;50.656;7.188;2022-08-21T15:06:38;2.38;;;1.50;;
9938;SDS011;5008;50.656;7.188;2022-08-21T15:09:06;3.05;;;1.80;;
9938;SDS011;5008;50.656;7.188;2022-08-21T15:11:33;2.50;;;1.58;;
9938;SDS011;5008;50.656;7.188;2022-08-21T15:14:00;2.65;;;1.67;;
9938;SDS011;5008;50.656;7.188;2022-08-21T15:16:29;2.55;;;1.90;;
9938;SDS011;5008;50.656;7.188;2022-08-21T15:18:56;3.83;;;1.90;;
9938;SDS011;5008;50.656;7.188;2022-08-21T15:21:23;3.55;;;2.20;;
9938;SDS011;5008;50.656;7.188;2022-08-21T15:23:50;3.17;;;1.90;;
9938;SDS011;5008;50.656;7.188;2022-08-21T15:26:19;2.40;;;1.80;;
9938;SDS011;5008;50.656;7.188;2022-08-21T15:28:47;3.88;;;2.00;;
9938;SDS011;5008;50.656;7.188;2022-08-21T15:31:14;2.25;;;1.90;;
9938;SDS011;5008;50.656;7.188;2022-08-21T15:33:41;3.45;;;1.90;;
9938;SDS011;5008;50.656;7.188;2022-08-21T15:36:08;3.67;;;1.95;;